createdAt,value
2023-02-17T00:00:56.951Z,85.55
2023-02-17T00:03:25.312Z,85.98
2023-02-17T00:05:53.348Z,86.61
2023-02-17T00:08:22.373Z,87.24
2023-02-17T00:10:57.709Z,87.39
2023-02-17T00:13:26.306Z,88.77
2023-02-17T00:15:54.358Z,90.38
2023-02-17T00:18:22.164Z,91.81
2023-02-17T00:20:50.485Z,93.39
2023-02-17T00:23:18.726Z,94.22
2023-02-17T00:25:47.766Z,94.92
2023-02-17T00:28:15.462Z,95.51
2023-02-17T00:30:43.176Z,95.98
2023-02-17T00:33:10.828Z,95.51
2023-02-17T00:35:41.610Z,96.17
2023-02-17T00:38:09.296Z,95.78
2023-02-17T00:40:36.972Z,96.30
2023-02-17T00:43:06.025Z,97.13
2023-02-17T00:45:33.683Z,96.44
2023-02-17T00:48:01.338Z,96.59
2023-02-17T00:50:28.989Z,96.58
2023-02-17T00:52:56.662Z,97.23
2023-02-17T00:55:24.318Z,98.21
2023-02-17T00:57:51.982Z,97.92
2023-02-17T01:00:21.720Z,98.05
2023-02-17T01:02:49.437Z,98.76
2023-02-17T01:05:17.104Z,98.71
2023-02-17T01:07:44.867Z,99.13
2023-02-17T01:10:12.956Z,99.46
2023-02-17T01:12:40.954Z,99.86
2023-02-17T01:15:09.560Z,100.00
2023-02-17T01:17:38.593Z,100.00
2023-02-17T01:20:07.884Z,100.00
2023-02-17T01:22:35.611Z,100.00
2023-02-17T01:25:03.559Z,100.00
2023-02-17T01:27:31.433Z,100.00
2023-02-17T01:29:59.187Z,100.00
2023-02-17T01:32:26.869Z,100.00
2023-02-17T01:34:55.999Z,100.00
2023-02-17T01:37:23.673Z,100.00
2023-02-17T01:39:51.314Z,100.00
2023-02-17T01:42:20.846Z,100.00
2023-02-17T01:45:29.036Z,100.00
2023-02-17T01:48:00.840Z,100.00
2023-02-17T01:50:33.388Z,100.00
2023-02-17T01:53:02.397Z,100.00
2023-02-17T01:55:31.999Z,100.00
2023-02-17T01:58:02.264Z,100.00
2023-02-17T02:00:33.076Z,100.00
2023-02-17T02:03:02.953Z,100.00
2023-02-17T02:05:32.166Z,100.00
2023-02-17T02:07:59.876Z,100.00
2023-02-17T02:10:27.555Z,100.00
2023-02-17T02:12:55.204Z,100.00
2023-02-17T02:15:25.929Z,100.00
2023-02-17T02:18:10.465Z,100.00
2023-02-17T02:21:00.080Z,100.00
2023-02-17T02:24:13.780Z,100.00
2023-02-17T02:27:32.110Z,100.00
2023-02-17T02:30:37.793Z,100.00
2023-02-17T02:33:12.581Z,100.00
2023-02-17T02:35:48.880Z,100.00
2023-02-17T02:38:21.469Z,100.00
2023-02-17T02:40:55.735Z,100.00
2023-02-17T02:43:25.081Z,100.00
2023-02-17T02:45:53.009Z,100.00
2023-02-17T02:48:22.122Z,100.00
2023-02-17T02:51:00.772Z,100.00
2023-02-17T02:53:49.950Z,100.00
2023-02-17T02:56:28.477Z,100.00
2023-02-17T02:59:07.773Z,100.00
2023-02-17T03:01:45.732Z,100.00
2023-02-17T03:04:20.213Z,100.00
2023-02-17T03:06:54.046Z,100.00
2023-02-17T03:09:24.055Z,100.00
2023-02-17T03:11:52.581Z,100.00
2023-02-17T03:14:22.595Z,100.00
2023-02-17T03:16:51.888Z,100.00
2023-02-17T03:19:24.475Z,100.00
2023-02-17T03:21:57.777Z,100.00
2023-02-17T03:24:25.945Z,100.00
2023-02-17T03:26:53.690Z,100.00
2023-02-17T03:29:21.401Z,100.00
2023-02-17T03:31:49.154Z,100.00
2023-02-17T03:34:16.903Z,100.00
2023-02-17T03:36:45.960Z,100.00
2023-02-17T03:39:13.620Z,100.00
2023-02-17T03:41:41.293Z,100.00
2023-02-17T03:44:09.260Z,100.00
2023-02-17T03:46:39.408Z,100.00
2023-02-17T03:49:07.109Z,100.00
2023-02-17T03:51:34.845Z,100.00
2023-02-17T03:54:03.945Z,100.00
2023-02-17T03:56:31.648Z,100.00
2023-02-17T03:58:59.341Z,100.00
2023-02-17T04:01:27.050Z,100.00
2023-02-17T04:03:54.806Z,100.00
2023-02-17T04:06:22.637Z,100.00
2023-02-17T04:08:50.333Z,100.00
2023-02-17T04:11:19.598Z,100.00
2023-02-17T04:13:47.290Z,100.00
2023-02-17T04:16:14.983Z,100.00
2023-02-17T04:18:42.648Z,100.00
2023-02-17T04:21:10.383Z,100.00
2023-02-17T04:23:38.960Z,100.00
2023-02-17T04:26:08.210Z,100.00
2023-02-17T04:28:38.885Z,100.00
2023-02-17T04:31:06.554Z,100.00
2023-02-17T04:33:34.428Z,100.00
2023-02-17T04:36:02.447Z,100.00
2023-02-17T04:38:32.195Z,100.00
2023-02-17T04:41:01.303Z,100.00
2023-02-17T04:43:30.195Z,100.00
2023-02-17T04:46:00.053Z,100.00
2023-02-17T04:48:27.938Z,100.00
2023-02-17T04:50:55.610Z,100.00
2023-02-17T04:53:23.368Z,100.00
2023-02-17T04:55:53.915Z,100.00
2023-02-17T04:58:21.828Z,100.00
2023-02-17T05:00:51.446Z,100.00
2023-02-17T05:03:20.675Z,100.00
2023-02-17T05:05:48.339Z,100.00
2023-02-17T05:08:16.023Z,100.00
2023-02-17T05:10:43.670Z,100.00
2023-02-17T05:13:11.317Z,100.00
2023-02-17T05:15:39.209Z,100.00
2023-02-17T05:18:07.066Z,100.00
2023-02-17T05:20:36.088Z,100.00
2023-02-17T05:23:03.726Z,100.00
2023-02-17T05:25:31.748Z,100.00
2023-02-17T05:27:59.440Z,100.00
2023-02-17T05:30:27.138Z,100.00
2023-02-17T05:32:54.825Z,100.00
2023-02-17T05:35:22.511Z,100.00
2023-02-17T05:37:51.739Z,100.00
2023-02-17T05:40:19.707Z,100.00
2023-02-17T05:42:47.353Z,100.00
2023-02-17T05:45:15.008Z,100.00
2023-02-17T05:47:42.690Z,100.00
2023-02-17T05:50:10.895Z,100.00
2023-02-17T05:52:38.578Z,100.00
2023-02-17T05:55:08.066Z,100.00
2023-02-17T05:57:35.768Z,100.00
2023-02-17T06:00:04.269Z,100.00
2023-02-17T06:02:31.924Z,100.00
2023-02-17T06:05:00.363Z,100.00
2023-02-17T06:07:28.180Z,100.00
2023-02-17T06:09:55.808Z,100.00
2023-02-17T06:12:24.832Z,100.00
2023-02-17T06:14:52.551Z,100.00
2023-02-17T06:17:20.168Z,100.00
2023-02-17T06:19:47.803Z,100.00
2023-02-17T06:22:17.244Z,100.00
2023-02-17T06:24:46.205Z,100.00
2023-02-17T06:27:13.879Z,100.00
2023-02-17T06:29:42.915Z,100.00
2023-02-17T06:32:10.710Z,100.00
2023-02-17T06:34:38.632Z,100.00
2023-02-17T06:37:06.460Z,100.00
2023-02-17T06:39:34.133Z,100.00
2023-02-17T06:42:01.931Z,100.00
2023-02-17T06:44:29.673Z,100.00
2023-02-17T06:46:59.322Z,100.00
2023-02-17T06:49:27.079Z,100.00
2023-02-17T06:51:54.800Z,100.00
2023-02-17T06:54:22.465Z,100.00
2023-02-17T06:56:50.119Z,100.00
2023-02-17T06:59:17.810Z,100.00
2023-02-17T07:01:45.594Z,100.00
2023-02-17T07:04:14.671Z,100.00
2023-02-17T07:06:42.630Z,100.00
2023-02-17T07:09:13.692Z,100.00
2023-02-17T07:11:41.904Z,100.00
2023-02-17T07:14:09.584Z,100.00
2023-02-17T07:16:37.306Z,100.00
2023-02-17T07:19:05.074Z,100.00
2023-02-17T07:25:20.646Z,100.00
2023-02-17T07:27:48.329Z,100.00
2023-02-17T07:30:16.338Z,100.00
2023-02-17T07:32:44.162Z,100.00
2023-02-17T07:35:11.986Z,100.00
2023-02-17T07:37:39.605Z,100.00
2023-02-17T07:40:08.665Z,100.00
2023-02-17T07:42:37.653Z,100.00
2023-02-17T07:45:06.060Z,100.00
2023-02-17T07:47:34.023Z,100.00
2023-02-17T07:50:01.769Z,100.00
2023-02-17T07:52:29.406Z,100.00
2023-02-17T07:54:57.038Z,100.00
2023-02-17T07:57:24.790Z,100.00
2023-02-17T07:59:53.795Z,100.00
2023-02-17T08:02:21.768Z,100.00
2023-02-17T08:04:49.456Z,100.00
2023-02-17T08:07:17.121Z,100.00
2023-02-17T08:10:02.001Z,100.00
2023-02-17T08:12:47.259Z,100.00
2023-02-17T08:15:16.263Z,100.00
2023-02-17T08:17:44.450Z,100.00
2023-02-17T08:20:13.413Z,100.00
2023-02-17T08:22:41.019Z,100.00
2023-02-17T08:25:09.117Z,100.00
2023-02-17T08:27:36.852Z,100.00
2023-02-17T08:30:05.406Z,100.00
2023-02-17T08:32:34.534Z,100.00
2023-02-17T08:35:02.649Z,100.00
2023-02-17T08:37:31.793Z,100.00
2023-02-17T08:39:59.991Z,100.00
2023-02-17T08:42:27.965Z,100.00
2023-02-17T08:44:55.824Z,100.00
2023-02-17T08:47:23.449Z,100.00
2023-02-17T08:49:52.546Z,100.00
2023-02-17T08:52:20.130Z,100.00
2023-02-17T08:54:47.819Z,100.00
2023-02-17T08:57:15.626Z,100.00
2023-02-17T08:59:43.342Z,100.00
2023-02-17T09:02:11.851Z,100.00
2023-02-17T09:04:39.543Z,100.00
2023-02-17T09:07:10.888Z,100.00
2023-02-17T09:09:38.553Z,100.00
2023-02-17T09:12:06.818Z,100.00
2023-02-17T09:14:34.905Z,100.00
2023-02-17T09:17:02.500Z,100.00
2023-02-17T09:19:30.315Z,100.00
2023-02-17T09:21:58.010Z,100.00
2023-02-17T09:24:27.077Z,100.00
2023-02-17T09:26:54.757Z,100.00
2023-02-17T09:29:22.361Z,100.00
2023-02-17T09:31:50.080Z,100.00
2023-02-17T09:34:17.796Z,100.00
2023-02-17T09:36:45.621Z,100.00
2023-02-17T09:39:14.739Z,100.00
2023-02-17T09:41:47.227Z,100.00
2023-02-17T09:44:21.759Z,100.00
2023-02-17T09:47:02.196Z,100.00
2023-02-17T09:49:36.007Z,100.00
2023-02-17T09:52:08.217Z,100.00
2023-02-17T09:54:42.412Z,100.00
2023-02-17T09:57:19.632Z,100.00
2023-02-17T09:59:51.649Z,100.00
2023-02-17T10:02:26.578Z,100.00
2023-02-17T10:04:57.331Z,100.00
2023-02-17T10:07:30.492Z,100.00
2023-02-17T10:10:06.532Z,100.00
2023-02-17T10:12:41.250Z,100.00
2023-02-17T10:15:16.081Z,100.00
2023-02-17T10:17:49.545Z,100.00
2023-02-17T10:20:21.012Z,100.00
2023-02-17T10:22:53.660Z,100.00
2023-02-17T10:25:27.214Z,100.00
2023-02-17T10:28:08.896Z,100.00
2023-02-17T10:30:45.783Z,100.00
2023-02-17T10:33:18.144Z,100.00
2023-02-17T10:35:51.764Z,100.00
2023-02-17T10:38:35.087Z,100.00
2023-02-17T10:41:06.184Z,100.00
2023-02-17T10:43:35.531Z,100.00
2023-02-17T10:46:07.770Z,100.00
2023-02-17T10:48:41.077Z,100.00
2023-02-17T10:51:09.051Z,100.00
2023-02-17T10:53:40.215Z,100.00
2023-02-17T10:56:14.385Z,100.00
2023-02-17T10:58:51.410Z,100.00
2023-02-17T11:01:20.138Z,100.00
2023-02-17T11:03:49.020Z,100.00
2023-02-17T11:06:19.262Z,100.00
2023-02-17T11:08:50.537Z,100.00
2023-02-17T11:11:21.121Z,100.00
2023-02-17T11:14:02.137Z,100.00
2023-02-17T11:16:34.782Z,100.00
2023-02-17T11:19:02.653Z,100.00
2023-02-17T11:21:33.156Z,100.00
2023-02-17T11:24:02.979Z,100.00
2023-02-17T11:26:32.470Z,100.00
2023-02-17T11:29:16.373Z,100.00
2023-02-17T11:31:55.477Z,100.00
2023-02-17T11:34:28.253Z,100.00
2023-02-17T11:37:00.583Z,100.00
2023-02-17T11:39:28.596Z,100.00
2023-02-17T11:41:57.629Z,100.00
2023-02-17T11:44:28.883Z,100.00
2023-02-17T11:47:07.735Z,100.00
2023-02-17T11:49:55.382Z,100.00
2023-02-17T11:52:35.023Z,100.00
2023-02-17T11:55:16.482Z,100.00
2023-02-17T11:57:54.883Z,100.00
2023-02-17T12:00:32.111Z,100.00
2023-02-17T12:03:30.275Z,100.00
2023-02-17T12:06:08.611Z,100.00
2023-02-17T12:08:50.961Z,100.00
2023-02-17T12:11:24.525Z,100.00
2023-02-17T12:14:02.470Z,100.00
2023-02-17T12:16:44.195Z,100.00
2023-02-17T12:19:34.338Z,100.00
2023-02-17T12:22:14.070Z,100.00
2023-02-17T12:25:04.130Z,100.00
2023-02-17T12:27:44.891Z,100.00
2023-02-17T12:30:24.885Z,100.00
2023-02-17T12:33:26.538Z,100.00
2023-02-17T12:35:56.927Z,100.00
2023-02-17T12:38:27.503Z,100.00
2023-02-17T12:40:58.525Z,100.00
2023-02-17T12:43:30.284Z,100.00
2023-02-17T12:46:01.927Z,100.00
2023-02-17T12:48:39.143Z,100.00
2023-02-17T12:51:12.362Z,100.00
2023-02-17T12:53:48.998Z,100.00
2023-02-17T12:56:38.493Z,100.00
2023-02-17T12:59:13.595Z,100.00
2023-02-17T13:01:56.126Z,100.00
2023-02-17T13:04:26.522Z,100.00
2023-02-17T13:07:01.634Z,100.00
2023-02-17T13:09:34.088Z,100.00
2023-02-17T13:12:18.201Z,100.00
2023-02-17T13:14:47.158Z,100.00
2023-02-17T13:17:26.482Z,100.00
2023-02-17T13:20:42.430Z,100.00
2023-02-17T13:23:13.506Z,100.00
2023-02-17T13:25:41.725Z,100.00
2023-02-17T13:28:34.258Z,100.00
2023-02-17T13:31:14.835Z,100.00
2023-02-17T13:33:44.180Z,100.00
2023-02-17T13:36:23.382Z,100.00
2023-02-17T13:39:01.444Z,100.00
2023-02-17T13:41:34.429Z,100.00
2023-02-17T13:44:29.396Z,100.00
2023-02-17T13:47:00.747Z,100.00
2023-02-17T13:49:32.886Z,100.00
2023-02-17T13:52:24.196Z,100.00
2023-02-17T13:54:53.502Z,100.00
2023-02-17T13:57:29.067Z,99.88
2023-02-17T14:00:09.053Z,100.00
2023-02-17T14:02:38.881Z,100.00
2023-02-17T14:05:17.873Z,99.94
2023-02-17T14:07:48.258Z,100.00
2023-02-17T14:10:21.178Z,99.27
2023-02-17T14:12:49.864Z,99.37
2023-02-17T14:15:18.411Z,99.69
2023-02-17T14:17:46.085Z,100.00
2023-02-17T14:20:29.699Z,100.00
2023-02-17T14:23:07.642Z,99.68
2023-02-17T14:25:37.631Z,99.81
2023-02-17T14:28:06.161Z,99.16
2023-02-17T14:30:36.098Z,99.45
2023-02-17T14:33:06.681Z,99.23
2023-02-17T14:35:35.442Z,99.84
2023-02-17T14:38:21.834Z,100.00
2023-02-17T14:40:50.074Z,100.00
2023-02-17T14:43:17.773Z,100.00
2023-02-17T14:45:45.797Z,100.00
2023-02-17T14:48:13.506Z,100.00
2023-02-17T14:50:44.047Z,100.00
2023-02-17T14:53:14.177Z,100.00
2023-02-17T14:55:49.059Z,100.00
2023-02-17T14:58:21.369Z,100.00
2023-02-17T15:00:49.899Z,100.00
2023-02-17T15:03:17.554Z,100.00
2023-02-17T15:05:45.555Z,100.00
2023-02-17T15:08:15.352Z,100.00
2023-02-17T15:10:45.126Z,100.00
2023-02-17T15:13:16.212Z,100.00
2023-02-17T15:15:45.042Z,100.00
2023-02-17T15:18:13.128Z,100.00
2023-02-17T15:20:43.191Z,100.00
2023-02-17T15:23:13.956Z,100.00
2023-02-17T15:25:41.933Z,100.00
2023-02-17T15:28:14.028Z,100.00
2023-02-17T15:30:41.987Z,100.00
2023-02-17T15:33:12.892Z,100.00
2023-02-17T15:35:41.502Z,100.00
2023-02-17T15:38:12.551Z,100.00
2023-02-17T15:40:41.666Z,100.00
2023-02-17T15:43:14.549Z,100.00
2023-02-17T15:45:42.248Z,100.00
2023-02-17T15:48:15.427Z,100.00
2023-02-17T15:50:43.145Z,100.00
2023-02-17T15:53:10.873Z,100.00
2023-02-17T15:55:39.888Z,100.00
2023-02-17T15:58:15.677Z,100.00
2023-02-17T16:00:45.982Z,100.00
2023-02-17T16:03:14.554Z,100.00
2023-02-17T16:05:43.094Z,100.00
2023-02-17T16:08:10.929Z,100.00
2023-02-17T16:10:40.134Z,100.00
2023-02-17T16:13:07.956Z,100.00
2023-02-17T16:15:37.517Z,100.00
2023-02-17T16:18:05.242Z,100.00
2023-02-17T16:20:35.043Z,100.00
2023-02-17T16:23:02.944Z,100.00
2023-02-17T16:25:30.903Z,100.00
2023-02-17T16:27:58.713Z,100.00
2023-02-17T16:30:31.183Z,100.00
2023-02-17T16:33:00.914Z,100.00
2023-02-17T16:35:31.613Z,100.00
2023-02-17T16:38:03.757Z,100.00
2023-02-17T16:40:34.621Z,100.00
2023-02-17T16:43:02.405Z,100.00
2023-02-17T16:45:31.742Z,100.00
2023-02-17T16:48:02.048Z,100.00
2023-02-17T16:50:32.275Z,100.00
2023-02-17T16:53:02.662Z,100.00
2023-02-17T16:55:32.166Z,100.00
2023-02-17T16:58:00.209Z,100.00
2023-02-17T17:00:30.165Z,100.00
2023-02-17T17:03:00.155Z,100.00
2023-02-17T17:05:29.220Z,100.00
2023-02-17T17:07:57.844Z,100.00
2023-02-17T17:10:27.877Z,100.00
2023-02-17T17:12:56.025Z,100.00
2023-02-17T17:15:23.953Z,100.00
2023-02-17T17:17:56.472Z,99.72
2023-02-17T17:20:30.940Z,99.42
2023-02-17T17:23:00.141Z,98.61
2023-02-17T17:25:29.107Z,98.12
2023-02-17T17:27:57.547Z,98.27
2023-02-17T17:30:28.684Z,98.25
2023-02-17T17:32:56.391Z,98.20
2023-02-17T17:35:25.572Z,98.42
2023-02-17T17:37:53.228Z,97.73
2023-02-17T17:40:22.816Z,98.27
2023-02-17T17:42:50.638Z,97.49
2023-02-17T17:45:18.654Z,95.71
2023-02-17T17:47:46.830Z,95.20
2023-02-17T17:50:17.875Z,95.08
2023-02-17T17:52:47.008Z,94.80
2023-02-17T17:55:15.999Z,94.26
2023-02-17T17:57:43.676Z,93.83
2023-02-17T18:00:16.041Z,93.66
2023-02-17T18:02:43.788Z,93.91
2023-02-17T18:05:12.243Z,93.56
2023-02-17T18:07:40.873Z,94.13
2023-02-17T18:10:14.160Z,97.52
2023-02-17T18:12:43.683Z,99.83
2023-02-17T18:15:11.827Z,98.36
2023-02-17T18:17:42.607Z,95.27
2023-02-17T18:20:12.414Z,92.62
2023-02-17T18:22:40.612Z,91.36
2023-02-17T18:25:10.265Z,90.62
2023-02-17T18:27:40.017Z,89.58
2023-02-17T18:30:09.579Z,89.17
2023-02-17T18:32:37.355Z,88.63
2023-02-17T18:35:05.780Z,86.43
2023-02-17T18:37:34.055Z,85.56
2023-02-17T18:40:02.363Z,83.36
2023-02-17T18:42:31.323Z,82.71
2023-02-17T18:44:58.975Z,80.32
2023-02-17T18:47:26.702Z,78.07
2023-02-17T18:49:54.386Z,76.68
2023-02-17T18:52:22.046Z,75.96
2023-02-17T18:54:50.540Z,77.50
2023-02-17T18:57:18.638Z,75.96
2023-02-17T18:59:47.638Z,76.32
2023-02-17T19:02:15.307Z,75.98
2023-02-17T19:04:42.959Z,75.71
2023-02-17T19:07:10.690Z,76.43
2023-02-17T19:09:42.166Z,73.95
2023-02-17T19:12:13.334Z,73.78
2023-02-17T19:14:41.689Z,69.19
2023-02-17T19:17:11.979Z,68.15
2023-02-17T19:19:40.099Z,68.24
2023-02-17T19:22:09.454Z,67.34
2023-02-17T19:24:37.506Z,67.35
2023-02-17T19:27:05.897Z,66.44
2023-02-17T19:29:34.143Z,67.38
2023-02-17T19:32:03.394Z,66.12
2023-02-17T19:34:33.082Z,64.74
2023-02-17T19:37:00.858Z,64.36
2023-02-17T19:39:28.558Z,65.13
2023-02-17T19:41:56.198Z,63.91
2023-02-17T19:44:23.842Z,65.46
2023-02-17T19:46:51.465Z,66.54
2023-02-17T19:49:19.112Z,67.49
2023-02-17T19:51:49.829Z,67.69
2023-02-17T19:54:18.092Z,67.82
2023-02-17T19:56:45.767Z,66.22
2023-02-17T19:59:14.241Z,66.98
2023-02-17T20:01:43.391Z,66.59
2023-02-17T20:04:11.249Z,65.89
2023-02-17T20:06:41.069Z,65.08
2023-02-17T20:09:12.954Z,65.32
2023-02-17T20:11:40.598Z,65.42
2023-02-17T20:14:08.514Z,66.38
2023-02-17T20:16:36.222Z,65.22
2023-02-17T20:19:04.802Z,65.31
2023-02-17T20:21:35.865Z,66.00
2023-02-17T20:24:03.881Z,65.86
2023-02-17T20:26:35.734Z,65.82
2023-02-17T20:29:03.443Z,66.88
2023-02-17T20:31:31.834Z,66.38
2023-02-17T20:33:59.577Z,67.04
2023-02-17T20:36:27.227Z,67.75
2023-02-17T20:38:54.868Z,67.64
2023-02-17T20:41:24.381Z,67.54
2023-02-17T20:43:54.026Z,68.00
2023-02-17T20:46:24.761Z,67.73
2023-02-17T20:48:52.844Z,67.48
2023-02-17T20:51:20.869Z,68.21
2023-02-17T20:53:48.860Z,67.80
2023-02-17T20:56:18.906Z,68.80
2023-02-17T20:58:47.097Z,68.54
2023-02-17T21:01:16.306Z,69.13
2023-02-17T21:03:43.977Z,69.31
2023-02-17T21:06:21.604Z,69.71
2023-02-17T21:08:52.204Z,70.16
2023-02-17T21:11:19.679Z,69.81
2023-02-17T21:13:47.689Z,69.46
2023-02-17T21:16:19.576Z,69.12
2023-02-17T21:18:47.937Z,69.23
2023-02-17T21:21:16.348Z,69.16
2023-02-17T21:23:44.157Z,69.21
2023-02-17T21:26:13.922Z,69.67
2023-02-17T21:28:41.643Z,69.60
2023-02-17T21:31:09.949Z,69.37
2023-02-17T21:33:41.919Z,69.67
2023-02-17T21:36:11.226Z,69.26
2023-02-17T21:38:40.724Z,69.75
2023-02-17T21:41:11.298Z,70.09
2023-02-17T21:43:56.805Z,70.32
2023-02-17T21:46:25.591Z,70.62
2023-02-17T21:48:56.016Z,70.53
2023-02-17T21:51:23.663Z,70.32
2023-02-17T21:53:52.597Z,71.11
2023-02-17T21:56:21.831Z,70.81
2023-02-17T21:58:51.087Z,70.57
2023-02-17T22:01:20.073Z,70.33
2023-02-17T22:03:47.968Z,70.82
2023-02-17T22:06:19.687Z,71.08
2023-02-17T22:08:47.441Z,71.12
2023-02-17T22:11:17.027Z,71.31
2023-02-17T22:13:44.900Z,71.64
2023-02-17T22:16:12.723Z,72.10
2023-02-17T22:18:40.680Z,70.99
2023-02-17T22:21:09.771Z,71.01
2023-02-17T22:23:39.736Z,71.10
2023-02-17T22:26:09.621Z,70.95
2023-02-17T22:28:37.584Z,71.03
2023-02-17T22:31:06.046Z,71.05
2023-02-17T22:33:34.410Z,71.41
2023-02-17T22:36:04.187Z,70.58
2023-02-17T22:38:32.147Z,70.35
2023-02-17T22:41:01.224Z,70.33
2023-02-17T22:43:28.885Z,71.01
2023-02-17T22:45:59.989Z,70.82
2023-02-17T22:48:27.882Z,71.34
2023-02-17T22:50:55.622Z,71.50
2023-02-17T22:53:23.415Z,71.63
2023-02-17T22:55:54.682Z,71.20
2023-02-17T22:58:24.475Z,70.54
2023-02-17T23:00:53.340Z,71.21
2023-02-17T23:03:21.074Z,70.52
2023-02-17T23:05:48.798Z,70.12
2023-02-17T23:08:16.477Z,70.73
2023-02-17T23:10:45.140Z,71.32
2023-02-17T23:13:12.814Z,70.94
2023-02-17T23:15:42.194Z,70.62
2023-02-17T23:18:11.818Z,71.72
2023-02-17T23:20:41.022Z,71.40
2023-02-17T23:23:09.221Z,72.11
2023-02-17T23:25:39.067Z,72.30
2023-02-17T23:28:07.024Z,72.05
2023-02-17T23:30:35.349Z,71.45
2023-02-17T23:33:04.649Z,72.11
2023-02-17T23:35:32.414Z,72.34
2023-02-17T23:38:00.752Z,72.21
2023-02-17T23:40:28.372Z,72.78
2023-02-17T23:42:56.074Z,73.91
2023-02-17T23:45:23.779Z,74.07
2023-02-17T23:47:51.446Z,73.86
2023-02-17T23:50:20.544Z,73.36
2023-02-17T23:52:48.192Z,73.91
2023-02-17T23:55:16.040Z,73.44
2023-02-17T23:57:43.708Z,73.89
